sensor_id;sensor_type;location;lat;lon;timestamp;temperature;humidity
39453;DHT22;25154;-33.684;151.102;2023-03-14T00:03:03;22.40;99.90
39453;DHT22;25154;-33.684;151.102;2023-03-14T00:08:05;22.80;99.90
39453;DHT22;25154;-33.684;151.102;2023-03-14T00:13:08;22.70;99.90
39453;DHT22;25154;-33.684;151.102;2023-03-14T00:18:10;22.70;99.90
39453;DHT22;25154;-33.684;151.102;2023-03-14T00:23:13;22.60;99.90
39453;DHT22;25154;-33.684;151.102;2023-03-14T00:28:15;22.70;99.90
39453;DHT22;25154;-33.684;151.102;2023-03-14T00:33:17;22.70;99.90
39453;DHT22;25154;-33.684;151.102;2023-03-14T00:38:20;22.90;99.90
39453;DHT22;25154;-33.684;151.102;2023-03-14T00:43:22;22.40;99.90
39453;DHT22;25154;-33.684;151.102;2023-03-14T00:48:25;22.00;99.90
39453;DHT22;25154;-33.684;151.102;2023-03-14T00:53:27;21.70;99.90
39453;DHT22;25154;-33.684;151.102;2023-03-14T00:58:30;21.60;99.90
39453;DHT22;25154;-33.684;151.102;2023-03-14T01:03:32;22.10;99.90
39453;DHT22;25154;-33.684;151.102;2023-03-14T01:08:34;22.00;99.90
39453;DHT22;25154;-33.684;151.102;2023-03-14T01:13:37;21.60;99.90
39453;DHT22;25154;-33.684;151.102;2023-03-14T01:18:41;21.20;99.90
39453;DHT22;25154;-33.684;151.102;2023-03-14T01:23:45;21.00;99.90
39453;DHT22;25154;-33.684;151.102;2023-03-14T01:28:49;20.70;99.90
39453;DHT22;25154;-33.684;151.102;2023-03-14T01:33:52;21.00;99.90
39453;DHT22;25154;-33.684;151.102;2023-03-14T01:38:55;21.40;99.90
39453;DHT22;25154;-33.684;151.102;2023-03-14T01:43:57;21.30;99.90
39453;DHT22;25154;-33.684;151.102;2023-03-14T01:49:54;21.10;99.90
39453;DHT22;25154;-33.684;151.102;2023-03-14T01:54:50;20.80;99.90
39453;DHT22;25154;-33.684;151.102;2023-03-14T02:00:04;20.60;99.90
39453;DHT22;25154;-33.684;151.102;2023-03-14T02:05:17;20.50;99.90
39453;DHT22;25154;-33.684;151.102;2023-03-14T02:10:23;20.50;99.90
39453;DHT22;25154;-33.684;151.102;2023-03-14T02:15:28;20.70;99.90
39453;DHT22;25154;-33.684;151.102;2023-03-14T02:30:59;21.30;99.90
39453;DHT22;25154;-33.684;151.102;2023-03-14T02:36:07;21.10;99.90
39453;DHT22;25154;-33.684;151.102;2023-03-14T02:41:10;20.90;99.90
39453;DHT22;25154;-33.684;151.102;2023-03-14T02:46:16;20.90;99.90
39453;DHT22;25154;-33.684;151.102;2023-03-14T02:51:20;20.80;99.90
39453;DHT22;25154;-33.684;151.102;2023-03-14T02:56:24;20.80;99.90
39453;DHT22;25154;-33.684;151.102;2023-03-14T03:01:26;20.90;99.90
39453;DHT22;25154;-33.684;151.102;2023-03-14T03:06:29;20.80;99.90
39453;DHT22;25154;-33.684;151.102;2023-03-14T03:11:32;20.90;99.90
39453;DHT22;25154;-33.684;151.102;2023-03-14T03:16:34;21.10;99.90
39453;DHT22;25154;-33.684;151.102;2023-03-14T03:21:37;21.70;99.90
39453;DHT22;25154;-33.684;151.102;2023-03-14T03:26:43;22.20;99.90
39453;DHT22;25154;-33.684;151.102;2023-03-14T03:31:45;22.10;99.90
39453;DHT22;25154;-33.684;151.102;2023-03-14T03:36:48;22.10;99.90
39453;DHT22;25154;-33.684;151.102;2023-03-14T03:41:51;22.20;99.90
39453;DHT22;25154;-33.684;151.102;2023-03-14T03:46:54;22.20;99.90
39453;DHT22;25154;-33.684;151.102;2023-03-14T03:51:57;22.00;99.90
39453;DHT22;25154;-33.684;151.102;2023-03-14T03:56:59;21.90;99.90
39453;DHT22;25154;-33.684;151.102;2023-03-14T04:02:02;22.00;99.90
39453;DHT22;25154;-33.684;151.102;2023-03-14T04:07:05;22.30;99.90
39453;DHT22;25154;-33.684;151.102;2023-03-14T04:12:08;22.70;99.90
39453;DHT22;25154;-33.684;151.102;2023-03-14T04:17:12;22.90;99.90
39453;DHT22;25154;-33.684;151.102;2023-03-14T04:22:15;23.00;99.90
39453;DHT22;25154;-33.684;151.102;2023-03-14T04:27:18;23.20;99.90
39453;DHT22;25154;-33.684;151.102;2023-03-14T04:32:21;23.60;99.90
39453;DHT22;25154;-33.684;151.102;2023-03-14T04:37:24;24.80;99.90
39453;DHT22;25154;-33.684;151.102;2023-03-14T04:42:26;26.30;99.90
39453;DHT22;25154;-33.684;151.102;2023-03-14T04:47:29;26.60;99.90
39453;DHT22;25154;-33.684;151.102;2023-03-14T04:52:32;25.90;99.90
39453;DHT22;25154;-33.684;151.102;2023-03-14T04:57:35;26.10;99.90
39453;DHT22;25154;-33.684;151.102;2023-03-14T05:02:37;26.90;99.90
39453;DHT22;25154;-33.684;151.102;2023-03-14T05:07:40;26.30;99.90
39453;DHT22;25154;-33.684;151.102;2023-03-14T05:12:43;25.70;99.90
39453;DHT22;25154;-33.684;151.102;2023-03-14T05:17:46;25.60;99.90
39453;DHT22;25154;-33.684;151.102;2023-03-14T05:22:50;26.30;99.90
39453;DHT22;25154;-33.684;151.102;2023-03-14T05:27:56;26.00;99.90
39453;DHT22;25154;-33.684;151.102;2023-03-14T05:32:59;25.50;99.90
39453;DHT22;25154;-33.684;151.102;2023-03-14T05:38:02;25.20;99.90
39453;DHT22;25154;-33.684;151.102;2023-03-14T05:43:05;25.10;99.90
39453;DHT22;25154;-33.684;151.102;2023-03-14T05:48:10;24.70;99.90
39453;DHT22;25154;-33.684;151.102;2023-03-14T05:53:13;24.00;99.90
39453;DHT22;25154;-33.684;151.102;2023-03-14T05:58:15;23.90;99.90
39453;DHT22;25154;-33.684;151.102;2023-03-14T06:03:18;24.60;99.90
39453;DHT22;25154;-33.684;151.102;2023-03-14T06:08:24;26.10;99.90
39453;DHT22;25154;-33.684;151.102;2023-03-14T06:13:31;27.20;99.90
39453;DHT22;25154;-33.684;151.102;2023-03-14T06:18:34;25.70;99.90
39453;DHT22;25154;-33.684;151.102;2023-03-14T06:23:36;23.70;99.90
39453;DHT22;25154;-33.684;151.102;2023-03-14T06:28:40;22.30;99.90
39453;DHT22;25154;-33.684;151.102;2023-03-14T06:33:43;21.70;99.90
39453;DHT22;25154;-33.684;151.102;2023-03-14T06:38:46;21.40;99.90
39453;DHT22;25154;-33.684;151.102;2023-03-14T06:43:49;21.20;99.90
39453;DHT22;25154;-33.684;151.102;2023-03-14T06:48:51;21.20;99.90
39453;DHT22;25154;-33.684;151.102;2023-03-14T06:53:55;21.10;99.90
39453;DHT22;25154;-33.684;151.102;2023-03-14T06:58:57;21.10;99.90
39453;DHT22;25154;-33.684;151.102;2023-03-14T07:04:00;21.10;99.90
39453;DHT22;25154;-33.684;151.102;2023-03-14T07:09:03;21.20;99.90
39453;DHT22;25154;-33.684;151.102;2023-03-14T07:14:10;21.60;99.90
39453;DHT22;25154;-33.684;151.102;2023-03-14T07:19:16;21.90;99.90
39453;DHT22;25154;-33.684;151.102;2023-03-14T07:24:18;21.70;99.90
39453;DHT22;25154;-33.684;151.102;2023-03-14T07:29:21;21.60;99.90
39453;DHT22;25154;-33.684;151.102;2023-03-14T07:34:24;21.30;99.90
39453;DHT22;25154;-33.684;151.102;2023-03-14T07:39:27;21.10;99.90
39453;DHT22;25154;-33.684;151.102;2023-03-14T07:44:30;20.90;99.90
39453;DHT22;25154;-33.684;151.102;2023-03-14T07:49:33;20.70;99.90
39453;DHT22;25154;-33.684;151.102;2023-03-14T07:54:35;20.50;99.90
39453;DHT22;25154;-33.684;151.102;2023-03-14T07:59:38;20.30;99.90
39453;DHT22;25154;-33.684;151.102;2023-03-14T08:04:41;20.10;99.90
39453;DHT22;25154;-33.684;151.102;2023-03-14T08:09:44;20.00;99.90
39453;DHT22;25154;-33.684;151.102;2023-03-14T08:14:50;19.90;99.90
39453;DHT22;25154;-33.684;151.102;2023-03-14T08:19:53;19.80;99.90
39453;DHT22;25154;-33.684;151.102;2023-03-14T08:24:55;19.60;99.90
39453;DHT22;25154;-33.684;151.102;2023-03-14T08:29:58;19.50;99.90
39453;DHT22;25154;-33.684;151.102;2023-03-14T08:35:01;19.40;99.90
39453;DHT22;25154;-33.684;151.102;2023-03-14T08:40:06;19.30;99.90
39453;DHT22;25154;-33.684;151.102;2023-03-14T08:45:13;19.30;99.90
39453;DHT22;25154;-33.684;151.102;2023-03-14T08:50:16;19.30;99.90
39453;DHT22;25154;-33.684;151.102;2023-03-14T08:55:19;19.30;99.90
39453;DHT22;25154;-33.684;151.102;2023-03-14T09:00:22;19.20;99.90
39453;DHT22;25154;-33.684;151.102;2023-03-14T09:05:25;19.20;99.90
39453;DHT22;25154;-33.684;151.102;2023-03-14T09:10:28;19.20;99.90
39453;DHT22;25154;-33.684;151.102;2023-03-14T09:15:31;19.20;99.90
39453;DHT22;25154;-33.684;151.102;2023-03-14T09:20:33;19.20;99.90
39453;DHT22;25154;-33.684;151.102;2023-03-14T09:25:36;19.30;99.90
39453;DHT22;25154;-33.684;151.102;2023-03-14T09:30:39;19.30;99.90
39453;DHT22;25154;-33.684;151.102;2023-03-14T09:35:42;19.30;99.90
39453;DHT22;25154;-33.684;151.102;2023-03-14T09:40:44;19.30;99.90
39453;DHT22;25154;-33.684;151.102;2023-03-14T09:45:48;19.40;99.90
39453;DHT22;25154;-33.684;151.102;2023-03-14T09:50:54;19.40;99.90
39453;DHT22;25154;-33.684;151.102;2023-03-14T09:56:02;19.40;99.90
39453;DHT22;25154;-33.684;151.102;2023-03-14T10:01:04;19.40;99.90
39453;DHT22;25154;-33.684;151.102;2023-03-14T10:06:13;19.40;99.90
39453;DHT22;25154;-33.684;151.102;2023-03-14T10:11:18;19.40;99.90
39453;DHT22;25154;-33.684;151.102;2023-03-14T10:16:29;19.40;99.90
39453;DHT22;25154;-33.684;151.102;2023-03-14T10:21:37;19.40;99.90
39453;DHT22;25154;-33.684;151.102;2023-03-14T10:26:40;19.40;99.90
39453;DHT22;25154;-33.684;151.102;2023-03-14T10:31:50;19.50;99.90
39453;DHT22;25154;-33.684;151.102;2023-03-14T10:36:55;19.50;99.90
39453;DHT22;25154;-33.684;151.102;2023-03-14T10:42:18;19.50;99.90
39453;DHT22;25154;-33.684;151.102;2023-03-14T10:47:24;19.50;99.90
39453;DHT22;25154;-33.684;151.102;2023-03-14T10:52:29;19.50;99.90
39453;DHT22;25154;-33.684;151.102;2023-03-14T10:57:42;19.50;99.90
39453;DHT22;25154;-33.684;151.102;2023-03-14T11:08:04;19.80;99.90
39453;DHT22;25154;-33.684;151.102;2023-03-14T11:13:23;19.50;99.90
39453;DHT22;25154;-33.684;151.102;2023-03-14T11:24:33;19.50;99.90
39453;DHT22;25154;-33.684;151.102;2023-03-14T11:34:52;19.50;99.90
39453;DHT22;25154;-33.684;151.102;2023-03-14T11:40:10;19.40;99.90
39453;DHT22;25154;-33.684;151.102;2023-03-14T11:45:18;19.40;99.90
39453;DHT22;25154;-33.684;151.102;2023-03-14T11:50:28;19.50;99.90
39453;DHT22;25154;-33.684;151.102;2023-03-14T11:55:36;19.50;99.90
39453;DHT22;25154;-33.684;151.102;2023-03-14T12:00:41;19.50;99.90
39453;DHT22;25154;-33.684;151.102;2023-03-14T12:06:09;19.40;99.90
39453;DHT22;25154;-33.684;151.102;2023-03-14T12:11:38;19.30;99.90
39453;DHT22;25154;-33.684;151.102;2023-03-14T12:16:46;19.20;99.90
39453;DHT22;25154;-33.684;151.102;2023-03-14T12:22:23;19.10;99.90
39453;DHT22;25154;-33.684;151.102;2023-03-14T12:27:48;19.00;99.90
39453;DHT22;25154;-33.684;151.102;2023-03-14T12:38:16;18.90;99.90
39453;DHT22;25154;-33.684;151.102;2023-03-14T12:43:32;18.90;99.90
39453;DHT22;25154;-33.684;151.102;2023-03-14T12:48:37;18.80;99.90
39453;DHT22;25154;-33.684;151.102;2023-03-14T13:04:46;18.70;99.90
39453;DHT22;25154;-33.684;151.102;2023-03-14T13:15:00;18.70;99.90
39453;DHT22;25154;-33.684;151.102;2023-03-14T13:20:53;18.80;99.90
39453;DHT22;25154;-33.684;151.102;2023-03-14T13:25:36;18.90;99.90
39453;DHT22;25154;-33.684;151.102;2023-03-14T13:30:42;19.00;99.90
39453;DHT22;25154;-33.684;151.102;2023-03-14T13:36:04;19.00;99.90
39453;DHT22;25154;-33.684;151.102;2023-03-14T13:41:10;19.00;99.90
39453;DHT22;25154;-33.684;151.102;2023-03-14T13:46:14;18.90;99.90
39453;DHT22;25154;-33.684;151.102;2023-03-14T13:51:19;18.80;99.90
39453;DHT22;25154;-33.684;151.102;2023-03-14T13:56:25;18.70;99.90
39453;DHT22;25154;-33.684;151.102;2023-03-14T14:01:32;18.70;99.90
39453;DHT22;25154;-33.684;151.102;2023-03-14T14:06:39;18.60;99.90
39453;DHT22;25154;-33.684;151.102;2023-03-14T14:17:13;18.40;99.90
39453;DHT22;25154;-33.684;151.102;2023-03-14T14:22:20;18.40;99.90
39453;DHT22;25154;-33.684;151.102;2023-03-14T14:27:35;18.40;99.90
39453;DHT22;25154;-33.684;151.102;2023-03-14T14:32:40;18.40;99.90
39453;DHT22;25154;-33.684;151.102;2023-03-14T14:37:43;18.50;99.90
39453;DHT22;25154;-33.684;151.102;2023-03-14T14:42:46;18.50;99.90
39453;DHT22;25154;-33.684;151.102;2023-03-14T14:47:54;18.50;99.90
39453;DHT22;25154;-33.684;151.102;2023-03-14T14:52:58;18.60;99.90
39453;DHT22;25154;-33.684;151.102;2023-03-14T15:03:31;18.70;99.90
39453;DHT22;25154;-33.684;151.102;2023-03-14T15:08:34;18.70;99.90
39453;DHT22;25154;-33.684;151.102;2023-03-14T15:13:36;18.70;99.90
39453;DHT22;25154;-33.684;151.102;2023-03-14T15:18:38;18.60;99.90
39453;DHT22;25154;-33.684;151.102;2023-03-14T15:23:41;18.60;99.90
39453;DHT22;25154;-33.684;151.102;2023-03-14T15:28:46;18.60;99.90
39453;DHT22;25154;-33.684;151.102;2023-03-14T15:33:49;18.60;99.90
39453;DHT22;25154;-33.684;151.102;2023-03-14T15:38:53;18.60;99.90
39453;DHT22;25154;-33.684;151.102;2023-03-14T15:43:56;18.50;99.90
39453;DHT22;25154;-33.684;151.102;2023-03-14T15:48:58;19.10;99.90
39453;DHT22;25154;-33.684;151.102;2023-03-14T15:54:00;18.40;99.90
39453;DHT22;25154;-33.684;151.102;2023-03-14T15:59:03;18.30;99.90
39453;DHT22;25154;-33.684;151.102;2023-03-14T16:04:08;18.30;99.90
39453;DHT22;25154;-33.684;151.102;2023-03-14T16:09:11;18.30;99.90
39453;DHT22;25154;-33.684;151.102;2023-03-14T16:14:14;18.40;99.90
39453;DHT22;25154;-33.684;151.102;2023-03-14T16:19:16;18.40;99.90
39453;DHT22;25154;-33.684;151.102;2023-03-14T16:24:19;18.40;99.90
39453;DHT22;25154;-33.684;151.102;2023-03-14T16:29:21;18.50;99.90
39453;DHT22;25154;-33.684;151.102;2023-03-14T16:34:24;18.50;99.90
39453;DHT22;25154;-33.684;151.102;2023-03-14T16:39:26;18.50;99.90
39453;DHT22;25154;-33.684;151.102;2023-03-14T16:44:32;18.50;99.90
39453;DHT22;25154;-33.684;151.102;2023-03-14T16:49:35;18.50;99.90
39453;DHT22;25154;-33.684;151.102;2023-03-14T16:54:37;18.60;99.90
39453;DHT22;25154;-33.684;151.102;2023-03-14T16:59:39;18.60;99.90
39453;DHT22;25154;-33.684;151.102;2023-03-14T17:04:42;18.60;99.90
39453;DHT22;25154;-33.684;151.102;2023-03-14T17:09:44;18.60;99.90
39453;DHT22;25154;-33.684;151.102;2023-03-14T17:14:48;18.60;99.90
39453;DHT22;25154;-33.684;151.102;2023-03-14T17:19:51;18.60;99.90
39453;DHT22;25154;-33.684;151.102;2023-03-14T17:24:53;18.60;99.90
39453;DHT22;25154;-33.684;151.102;2023-03-14T17:29:55;18.60;99.90
39453;DHT22;25154;-33.684;151.102;2023-03-14T17:34:58;18.60;99.90
39453;DHT22;25154;-33.684;151.102;2023-03-14T17:40:00;18.70;99.90
39453;DHT22;25154;-33.684;151.102;2023-03-14T17:45:05;18.70;99.90
39453;DHT22;25154;-33.684;151.102;2023-03-14T17:50:08;18.70;99.90
39453;DHT22;25154;-33.684;151.102;2023-03-14T17:55:11;18.70;99.90
39453;DHT22;25154;-33.684;151.102;2023-03-14T18:00:13;18.70;99.90
39453;DHT22;25154;-33.684;151.102;2023-03-14T18:05:16;18.70;99.90
39453;DHT22;25154;-33.684;151.102;2023-03-14T18:10:18;18.60;99.90
39453;DHT22;25154;-33.684;151.102;2023-03-14T18:15:21;18.60;99.90
39453;DHT22;25154;-33.684;151.102;2023-03-14T18:20:24;18.60;99.90
39453;DHT22;25154;-33.684;151.102;2023-03-14T18:25:26;18.60;99.90
39453;DHT22;25154;-33.684;151.102;2023-03-14T18:30:29;18.50;99.90
39453;DHT22;25154;-33.684;151.102;2023-03-14T18:35:31;18.40;99.90
39453;DHT22;25154;-33.684;151.102;2023-03-14T18:40:34;18.40;99.90
39453;DHT22;25154;-33.684;151.102;2023-03-14T18:45:37;18.30;99.90
39453;DHT22;25154;-33.684;151.102;2023-03-14T18:50:40;18.30;99.90
39453;DHT22;25154;-33.684;151.102;2023-03-14T18:55:43;18.40;99.90
39453;DHT22;25154;-33.684;151.102;2023-03-14T19:00:45;18.40;99.90
39453;DHT22;25154;-33.684;151.102;2023-03-14T19:05:47;18.40;99.90
39453;DHT22;25154;-33.684;151.102;2023-03-14T19:10:51;18.40;99.90
39453;DHT22;25154;-33.684;151.102;2023-03-14T19:15:55;18.50;99.90
39453;DHT22;25154;-33.684;151.102;2023-03-14T19:21:03;18.40;99.90
39453;DHT22;25154;-33.684;151.102;2023-03-14T19:26:06;18.40;99.90
39453;DHT22;25154;-33.684;151.102;2023-03-14T19:31:10;18.30;99.90
39453;DHT22;25154;-33.684;151.102;2023-03-14T19:36:27;18.20;99.90
39453;DHT22;25154;-33.684;151.102;2023-03-14T19:41:31;18.20;99.90
39453;DHT22;25154;-33.684;151.102;2023-03-14T19:46:34;18.00;99.90
39453;DHT22;25154;-33.684;151.102;2023-03-14T19:51:37;18.00;99.90
39453;DHT22;25154;-33.684;151.102;2023-03-14T19:56:39;18.00;99.90
39453;DHT22;25154;-33.684;151.102;2023-03-14T20:01:43;18.00;99.90
39453;DHT22;25154;-33.684;151.102;2023-03-14T20:06:49;18.00;99.90
39453;DHT22;25154;-33.684;151.102;2023-03-14T20:11:56;18.10;99.90
39453;DHT22;25154;-33.684;151.102;2023-03-14T20:16:59;18.10;99.90
39453;DHT22;25154;-33.684;151.102;2023-03-14T20:22:02;18.10;99.90
39453;DHT22;25154;-33.684;151.102;2023-03-14T20:27:06;18.00;99.90
39453;DHT22;25154;-33.684;151.102;2023-03-14T20:32:09;18.10;99.90
39453;DHT22;25154;-33.684;151.102;2023-03-14T20:37:12;18.20;99.90
39453;DHT22;25154;-33.684;151.102;2023-03-14T20:42:15;18.30;99.90
39453;DHT22;25154;-33.684;151.102;2023-03-14T20:47:19;18.40;99.90
39453;DHT22;25154;-33.684;151.102;2023-03-14T20:52:22;18.40;99.90
39453;DHT22;25154;-33.684;151.102;2023-03-14T20:57:24;18.40;99.90
39453;DHT22;25154;-33.684;151.102;2023-03-14T21:02:27;18.40;99.90
39453;DHT22;25154;-33.684;151.102;2023-03-14T21:07:34;18.50;99.90
39453;DHT22;25154;-33.684;151.102;2023-03-14T21:12:42;18.60;99.90
39453;DHT22;25154;-33.684;151.102;2023-03-14T21:17:45;18.40;99.90
39453;DHT22;25154;-33.684;151.102;2023-03-14T21:22:48;18.50;99.90
39453;DHT22;25154;-33.684;151.102;2023-03-14T21:27:50;18.50;99.90
39453;DHT22;25154;-33.684;151.102;2023-03-14T21:32:53;18.70;99.90
39453;DHT22;25154;-33.684;151.102;2023-03-14T21:37:56;18.80;99.90
39453;DHT22;25154;-33.684;151.102;2023-03-14T21:42:59;18.90;99.90
39453;DHT22;25154;-33.684;151.102;2023-03-14T21:48:05;19.10;99.90
39453;DHT22;25154;-33.684;151.102;2023-03-14T21:53:08;19.30;99.90
39453;DHT22;25154;-33.684;151.102;2023-03-14T21:58:14;19.50;99.90
39453;DHT22;25154;-33.684;151.102;2023-03-14T22:03:20;19.50;99.90
39453;DHT22;25154;-33.684;151.102;2023-03-14T22:08:26;19.60;99.90
39453;DHT22;25154;-33.684;151.102;2023-03-14T22:13:29;19.60;99.90
39453;DHT22;25154;-33.684;151.102;2023-03-14T22:18:32;19.60;99.90
39453;DHT22;25154;-33.684;151.102;2023-03-14T22:23:35;19.60;99.90
39453;DHT22;25154;-33.684;151.102;2023-03-14T22:28:37;19.60;99.90
39453;DHT22;25154;-33.684;151.102;2023-03-14T22:33:40;19.60;99.90
39453;DHT22;25154;-33.684;151.102;2023-03-14T22:38:43;19.90;99.90
39453;DHT22;25154;-33.684;151.102;2023-03-14T22:43:45;20.40;99.90
39453;DHT22;25154;-33.684;151.102;2023-03-14T22:48:48;20.50;99.90
39453;DHT22;25154;-33.684;151.102;2023-03-14T22:53:51;20.40;99.90
39453;DHT22;25154;-33.684;151.102;2023-03-14T22:58:56;20.60;99.90
39453;DHT22;25154;-33.684;151.102;2023-03-14T23:03:59;21.10;99.90
39453;DHT22;25154;-33.684;151.102;2023-03-14T23:09:02;21.40;99.90
39453;DHT22;25154;-33.684;151.102;2023-03-14T23:14:05;21.70;99.90
39453;DHT22;25154;-33.684;151.102;2023-03-14T23:19:08;22.00;99.90
39453;DHT22;25154;-33.684;151.102;2023-03-14T23:24:11;22.30;99.90
39453;DHT22;25154;-33.684;151.102;2023-03-14T23:29:14;22.50;99.90
39453;DHT22;25154;-33.684;151.102;2023-03-14T23:34:17;22.60;99.90
39453;DHT22;25154;-33.684;151.102;2023-03-14T23:39:20;22.90;99.90
39453;DHT22;25154;-33.684;151.102;2023-03-14T23:44:23;23.10;99.90
39453;DHT22;25154;-33.684;151.102;2023-03-14T23:49:27;23.20;99.90
39453;DHT22;25154;-33.684;151.102;2023-03-14T23:54:30;23.60;99.90
39453;DHT22;25154;-33.684;151.102;2023-03-14T23:59:35;24.00;99.90
